createdAt,value
2018-12-31T00:02:08.909Z,2.50
2018-12-31T00:04:39.598Z,3.00
2018-12-31T00:07:09.440Z,2.00
2018-12-31T00:09:39.365Z,3.03
2018-12-31T00:12:09.256Z,2.50
2018-12-31T00:14:39.141Z,2.03
2018-12-31T00:17:09.399Z,2.80
2018-12-31T00:19:39.651Z,2.20
2018-12-31T00:22:09.536Z,2.07
2018-12-31T00:24:39.486Z,2.10
2018-12-31T00:27:09.349Z,2.43
2018-12-31T00:29:39.222Z,2.53
2018-12-31T00:32:09.131Z,2.50
2018-12-31T00:34:39.319Z,2.67
2018-12-31T00:37:09.398Z,2.60
2018-12-31T00:39:39.328Z,2.60
2018-12-31T00:42:09.198Z,2.67
2018-12-31T00:44:39.122Z,2.80
2018-12-31T00:47:09.084Z,2.50
2018-12-31T00:49:38.943Z,2.37
2018-12-31T00:52:09.113Z,2.20
2018-12-31T00:54:39.050Z,2.07
2018-12-31T00:57:08.949Z,2.13
2018-12-31T00:59:38.792Z,1.50
2018-12-31T01:02:08.785Z,1.87
2018-12-31T01:04:38.666Z,1.57
2018-12-31T01:07:09.203Z,1.43
2018-12-31T01:09:39.104Z,1.57
2018-12-31T01:12:08.972Z,1.50
2018-12-31T01:14:38.866Z,1.30
2018-12-31T01:17:08.857Z,1.60
2018-12-31T01:19:38.741Z,1.60
2018-12-31T01:22:09.015Z,1.60
2018-12-31T01:24:39.092Z,1.53
2018-12-31T01:27:08.954Z,1.50
2018-12-31T01:29:38.862Z,1.33
2018-12-31T01:32:08.798Z,1.90
2018-12-31T01:34:38.682Z,1.80
2018-12-31T01:37:08.939Z,2.00
2018-12-31T01:39:38.874Z,1.90
2018-12-31T01:42:08.843Z,1.40
2018-12-31T01:44:38.746Z,1.87
2018-12-31T01:47:08.750Z,1.40
2018-12-31T01:49:38.611Z,1.40
2018-12-31T01:52:08.603Z,1.50
2018-12-31T01:54:38.882Z,1.50
2018-12-31T01:57:08.881Z,1.57
2018-12-31T01:59:38.745Z,1.60
2018-12-31T02:02:08.706Z,1.43
2018-12-31T02:04:38.590Z,1.50
2018-12-31T02:07:08.562Z,1.40
2018-12-31T02:09:38.860Z,1.47
2018-12-31T02:12:08.781Z,1.30
2018-12-31T02:14:38.665Z,1.30
2018-12-31T02:17:08.584Z,1.40
2018-12-31T02:19:38.479Z,0.90
2018-12-31T02:22:08.416Z,1.20
2018-12-31T02:24:38.603Z,1.40
2018-12-31T02:27:08.626Z,1.20
2018-12-31T02:29:38.529Z,1.23
2018-12-31T02:32:08.484Z,1.73
2018-12-31T02:34:38.327Z,1.73
2018-12-31T02:37:08.212Z,1.50
2018-12-31T02:39:38.587Z,1.73
2018-12-31T02:42:08.442Z,1.70
2018-12-31T02:44:38.326Z,2.07
2018-12-31T02:47:08.909Z,2.07
2018-12-31T02:49:38.737Z,1.70
2018-12-31T02:52:08.617Z,1.90
2018-12-31T02:54:38.534Z,1.80
2018-12-31T02:57:08.682Z,2.07
2018-12-31T02:59:38.560Z,1.80
2018-12-31T03:02:08.475Z,1.73
2018-12-31T03:04:38.348Z,1.73
2018-12-31T03:07:08.253Z,1.67
2018-12-31T03:09:38.173Z,1.50
2018-12-31T03:12:08.283Z,1.90
2018-12-31T03:14:38.174Z,1.90
2018-12-31T03:17:08.067Z,1.80
2018-12-31T03:19:37.946Z,1.77
2018-12-31T03:22:07.841Z,1.80
2018-12-31T03:24:38.011Z,1.77
2018-12-31T03:27:08.278Z,1.90
2018-12-31T03:29:38.176Z,1.80
2018-12-31T03:32:08.106Z,2.00
2018-12-31T03:34:37.960Z,1.70
2018-12-31T03:37:08.550Z,1.33
2018-12-31T03:39:38.490Z,1.60
2018-12-31T03:42:08.358Z,1.93
2018-12-31T03:44:38.575Z,2.03
2018-12-31T03:47:08.527Z,1.80
2018-12-31T03:49:38.428Z,1.87
2018-12-31T03:52:08.342Z,1.73
2018-12-31T03:54:38.261Z,1.73
2018-12-31T03:57:08.154Z,1.90
2018-12-31T03:59:38.356Z,1.60
2018-12-31T04:02:08.249Z,1.40
2018-12-31T04:04:38.136Z,1.50
2018-12-31T04:07:08.099Z,1.60
2018-12-31T04:09:38.012Z,1.27
2018-12-31T04:12:07.885Z,1.20
2018-12-31T04:14:38.205Z,1.63
2018-12-31T04:17:08.144Z,1.10
2018-12-31T04:19:38.022Z,1.33
2018-12-31T04:22:07.882Z,1.20
2018-12-31T04:24:37.820Z,1.27
2018-12-31T04:27:07.706Z,1.17
2018-12-31T04:29:37.948Z,1.10
2018-12-31T04:32:07.856Z,1.17
2018-12-31T04:34:37.756Z,1.00
2018-12-31T04:37:07.616Z,0.90
2018-12-31T04:39:37.530Z,1.00
2018-12-31T04:42:07.417Z,1.17
2018-12-31T04:44:37.338Z,1.17
2018-12-31T04:47:07.558Z,1.10
2018-12-31T04:49:37.456Z,0.90
2018-12-31T04:52:07.347Z,0.80
2018-12-31T04:54:37.522Z,1.03
2018-12-31T04:57:07.478Z,1.10
2018-12-31T04:59:37.351Z,1.17
2018-12-31T05:02:07.679Z,1.00
2018-12-31T05:04:37.564Z,0.90
2018-12-31T05:07:07.425Z,0.80
2018-12-31T05:09:37.821Z,0.90
2018-12-31T05:12:07.690Z,0.77
2018-12-31T05:14:37.575Z,0.70
2018-12-31T05:17:08.113Z,0.53
2018-12-31T05:19:38.009Z,0.67
2018-12-31T05:22:07.885Z,0.70
2018-12-31T05:24:37.774Z,0.60
2018-12-31T05:27:07.635Z,0.80
2018-12-31T05:29:37.536Z,0.70
2018-12-31T05:32:07.960Z,0.40
2018-12-31T05:34:37.830Z,0.80
2018-12-31T05:37:07.666Z,0.70
2018-12-31T05:39:37.609Z,0.50
2018-12-31T05:42:07.483Z,0.70
2018-12-31T05:44:37.315Z,0.60
2018-12-31T05:47:07.697Z,0.63
2018-12-31T05:49:37.637Z,0.40
2018-12-31T05:52:07.616Z,0.73
2018-12-31T05:54:37.798Z,0.80
2018-12-31T05:57:07.659Z,0.70
2018-12-31T05:59:37.514Z,1.00
2018-12-31T06:02:07.421Z,0.90
2018-12-31T06:04:37.736Z,0.50
2018-12-31T06:07:07.719Z,0.80
2018-12-31T06:09:37.936Z,0.70
2018-12-31T06:12:07.954Z,0.60
2018-12-31T06:14:37.842Z,0.60
2018-12-31T06:17:08.294Z,0.67
2018-12-31T06:19:38.529Z,0.70
2018-12-31T06:22:08.408Z,0.90
2018-12-31T06:24:38.322Z,0.70
2018-12-31T06:27:08.175Z,0.67
2018-12-31T06:29:38.055Z,0.60
2018-12-31T06:32:07.974Z,0.60
2018-12-31T06:34:38.186Z,0.63
2018-12-31T06:37:08.066Z,1.00
2018-12-31T06:39:37.992Z,0.87
2018-12-31T06:42:07.839Z,0.33
2018-12-31T06:44:37.687Z,1.00
2018-12-31T06:47:07.616Z,0.70
2018-12-31T06:49:37.810Z,0.97
2018-12-31T06:52:07.716Z,1.00
2018-12-31T06:54:37.634Z,0.87
2018-12-31T06:57:07.496Z,0.97
2018-12-31T06:59:37.356Z,0.90
2018-12-31T07:02:07.265Z,1.10
2018-12-31T07:04:37.165Z,0.87
2018-12-31T07:07:07.042Z,1.10
2018-12-31T07:09:36.907Z,0.77
2018-12-31T07:12:06.758Z,1.20
2018-12-31T07:14:36.616Z,1.17
2018-12-31T07:17:06.505Z,1.27
2018-12-31T07:19:36.401Z,1.37
2018-12-31T07:22:06.617Z,1.40
2018-12-31T07:24:36.531Z,1.07
2018-12-31T07:27:06.404Z,1.70
2018-12-31T07:29:36.298Z,1.60
2018-12-31T07:32:06.204Z,1.50
2018-12-31T07:34:36.073Z,1.57
2018-12-31T07:37:06.290Z,1.50
2018-12-31T07:39:36.203Z,1.90
2018-12-31T07:42:06.177Z,1.90
2018-12-31T07:44:36.026Z,2.00
2018-12-31T07:47:05.907Z,2.17
2018-12-31T07:49:35.786Z,2.60
2018-12-31T07:52:06.119Z,2.43
2018-12-31T07:54:36.546Z,2.63
2018-12-31T07:57:06.440Z,2.57
2018-12-31T07:59:36.339Z,3.07
2018-12-31T08:02:06.240Z,2.23
2018-12-31T08:04:36.083Z,1.73
2018-12-31T08:07:06.067Z,3.03
2018-12-31T08:09:35.976Z,2.50
2018-12-31T08:12:05.870Z,2.63
2018-12-31T08:14:35.773Z,2.70
2018-12-31T08:17:05.690Z,3.00
2018-12-31T08:19:35.548Z,2.90
2018-12-31T08:22:05.429Z,2.67
2018-12-31T08:24:35.326Z,2.30
2018-12-31T08:27:05.164Z,2.50
2018-12-31T08:29:35.031Z,2.60
2018-12-31T08:32:04.996Z,2.63
2018-12-31T08:34:34.862Z,2.00
2018-12-31T08:37:04.765Z,1.80
2018-12-31T08:39:35.343Z,1.90
2018-12-31T08:42:05.215Z,1.80
2018-12-31T08:44:35.064Z,2.50
2018-12-31T08:47:04.983Z,1.83
2018-12-31T08:49:34.845Z,1.80
2018-12-31T08:52:04.830Z,2.20
2018-12-31T08:54:35.205Z,1.97
2018-12-31T08:57:05.077Z,2.33
2018-12-31T08:59:34.927Z,2.57
2018-12-31T09:02:04.954Z,2.00
2018-12-31T09:04:34.852Z,1.87
2018-12-31T09:07:04.741Z,1.83
2018-12-31T09:09:35.426Z,2.30
2018-12-31T09:12:05.282Z,1.60
2018-12-31T09:14:35.148Z,1.90
2018-12-31T09:17:05.048Z,2.20
2018-12-31T09:19:34.944Z,2.43
2018-12-31T09:22:04.940Z,2.77
2018-12-31T09:24:35.030Z,2.60
2018-12-31T09:27:04.920Z,2.73
2018-12-31T09:29:34.817Z,2.70
2018-12-31T09:32:04.730Z,3.03
2018-12-31T09:34:34.736Z,3.00
2018-12-31T09:37:04.621Z,3.10
2018-12-31T09:39:34.520Z,3.27
2018-12-31T09:42:04.413Z,3.20
2018-12-31T09:44:34.428Z,3.27
2018-12-31T09:47:04.324Z,3.30
2018-12-31T09:49:34.423Z,3.90
2018-12-31T09:52:04.330Z,3.40
2018-12-31T09:54:34.256Z,3.27
2018-12-31T09:57:04.139Z,3.53
2018-12-31T09:59:34.160Z,2.80
2018-12-31T10:02:04.079Z,4.07
2018-12-31T10:04:33.936Z,3.50
2018-12-31T10:07:03.825Z,4.37
2018-12-31T10:09:33.830Z,4.50
2018-12-31T10:12:04.534Z,4.53
2018-12-31T10:14:34.423Z,4.53
2018-12-31T10:17:04.323Z,5.23
2018-12-31T10:19:34.273Z,5.33
2018-12-31T10:22:04.165Z,5.10
2018-12-31T10:24:34.653Z,4.13
2018-12-31T10:27:05.393Z,4.77
2018-12-31T10:29:36.216Z,3.93
2018-12-31T10:32:06.671Z,6.17
2018-12-31T10:34:36.613Z,7.07
2018-12-31T10:37:06.497Z,5.87
2018-12-31T10:39:36.586Z,8.10
2018-12-31T10:42:06.566Z,16.03
2018-12-31T10:44:36.556Z,16.10
2018-12-31T10:47:13.733Z,17.43
2018-12-31T10:49:39.444Z,17.80
2018-12-31T10:52:09.282Z,13.63
2018-12-31T10:54:39.684Z,24.30
2018-12-31T10:57:09.980Z,7.57
2018-12-31T10:59:39.835Z,3.50
2018-12-31T11:02:09.761Z,2.93
2018-12-31T11:04:39.715Z,8.53
2018-12-31T11:07:10.015Z,7.30
2018-12-31T11:09:39.974Z,19.10
2018-12-31T11:12:10.167Z,12.67
2018-12-31T11:14:40.152Z,10.77
2018-12-31T11:17:10.093Z,14.87
2018-12-31T11:19:40.169Z,18.70
2018-12-31T11:22:10.119Z,22.97
2018-12-31T11:24:40.047Z,21.67
2018-12-31T11:27:10.722Z,14.13
2018-12-31T11:29:40.764Z,7.17
2018-12-31T11:32:10.696Z,5.47
2018-12-31T11:34:40.587Z,16.50
2018-12-31T11:37:10.485Z,12.63
2018-12-31T11:39:40.478Z,14.17
2018-12-31T11:42:10.706Z,14.87
2018-12-31T11:44:40.674Z,22.00
2018-12-31T11:47:10.966Z,23.47
2018-12-31T11:49:40.860Z,29.17
2018-12-31T11:52:10.707Z,25.63
2018-12-31T11:54:40.688Z,19.40
2018-12-31T11:57:10.928Z,16.37
2018-12-31T11:59:40.857Z,15.10
2018-12-31T12:02:10.786Z,16.10
2018-12-31T12:04:40.782Z,15.67
2018-12-31T12:07:10.660Z,19.20
2018-12-31T12:09:40.583Z,17.90
2018-12-31T12:12:10.484Z,14.27
2018-12-31T12:14:40.655Z,11.60
2018-12-31T12:17:10.584Z,14.10
2018-12-31T12:19:40.489Z,6.00
2018-12-31T12:22:10.356Z,4.47
2018-12-31T12:24:40.271Z,4.40
2018-12-31T12:27:10.137Z,2.17
2018-12-31T12:29:40.530Z,2.50
2018-12-31T12:32:11.136Z,1.40
2018-12-31T12:34:41.038Z,1.70
2018-12-31T12:37:11.443Z,2.17
2018-12-31T12:39:41.339Z,1.90
2018-12-31T12:42:11.534Z,2.13
2018-12-31T12:44:41.828Z,1.80
2018-12-31T12:47:11.751Z,1.90
2018-12-31T12:49:41.624Z,1.90
2018-12-31T12:52:11.568Z,1.70
2018-12-31T12:54:41.620Z,1.10
2018-12-31T12:57:11.542Z,1.00
2018-12-31T12:59:42.123Z,1.00
2018-12-31T13:02:12.018Z,0.80
2018-12-31T13:04:41.896Z,1.03
2018-12-31T13:07:11.818Z,1.00
2018-12-31T13:09:41.725Z,0.90
2018-12-31T13:12:11.859Z,0.93
2018-12-31T13:14:42.059Z,0.67
2018-12-31T13:17:11.967Z,0.90
2018-12-31T13:19:41.851Z,0.73
2018-12-31T13:22:11.744Z,0.80
2018-12-31T13:24:41.677Z,0.87
2018-12-31T13:27:11.562Z,1.00
2018-12-31T13:29:41.933Z,1.17
2018-12-31T13:32:11.851Z,1.13
2018-12-31T13:34:42.362Z,0.73
2018-12-31T13:37:12.332Z,1.10
2018-12-31T13:39:42.694Z,0.87
2018-12-31T13:42:12.554Z,1.17
2018-12-31T13:44:42.750Z,1.50
2018-12-31T13:47:12.646Z,1.40
2018-12-31T13:49:42.545Z,1.10
2018-12-31T13:52:12.416Z,1.20
2018-12-31T13:54:42.822Z,1.67
2018-12-31T13:57:12.723Z,1.70
2018-12-31T13:59:42.589Z,1.63
2018-12-31T14:02:12.475Z,1.50
2018-12-31T14:04:42.363Z,1.40
2018-12-31T14:07:12.246Z,1.70
2018-12-31T14:09:42.331Z,3.40
2018-12-31T14:12:12.475Z,1.70
2018-12-31T14:14:42.737Z,1.50
2018-12-31T14:17:12.636Z,1.70
2018-12-31T14:19:42.513Z,1.53
2018-12-31T14:22:12.397Z,1.60
2018-12-31T14:24:42.303Z,1.40
2018-12-31T14:27:12.170Z,1.57
2018-12-31T14:29:42.038Z,1.53
2018-12-31T14:32:12.491Z,1.87
2018-12-31T14:34:42.380Z,1.83
2018-12-31T14:37:12.276Z,1.87
2018-12-31T14:39:42.455Z,2.23
2018-12-31T14:42:12.309Z,6.80
2018-12-31T14:44:42.202Z,1.80
2018-12-31T14:47:18.345Z,2.60
2018-12-31T14:49:44.090Z,1.60
2018-12-31T14:52:13.939Z,1.40
2018-12-31T14:54:43.981Z,3.37
2018-12-31T14:57:13.942Z,1.30
2018-12-31T14:59:43.790Z,1.80
2018-12-31T15:02:13.899Z,1.80
2018-12-31T15:04:44.079Z,1.70
2018-12-31T15:07:14.335Z,1.20
2018-12-31T15:09:44.571Z,1.50
2018-12-31T15:12:14.445Z,1.70
2018-12-31T15:14:44.700Z,1.40
2018-12-31T15:17:14.870Z,1.40
2018-12-31T15:19:44.753Z,1.40
2018-12-31T15:22:14.612Z,1.27
2018-12-31T15:24:44.488Z,1.33
2018-12-31T15:27:14.442Z,1.43
2018-12-31T15:29:44.336Z,1.30
2018-12-31T15:32:14.363Z,1.77
2018-12-31T15:34:44.219Z,1.13
2018-12-31T15:37:14.074Z,1.60
2018-12-31T15:39:44.478Z,1.33
2018-12-31T15:42:14.689Z,1.50
2018-12-31T15:44:44.587Z,1.37
2018-12-31T15:47:15.351Z,1.20
2018-12-31T15:49:45.307Z,1.50
2018-12-31T15:52:15.198Z,1.50
2018-12-31T15:54:45.164Z,1.57
2018-12-31T15:57:15.034Z,1.37
2018-12-31T15:59:44.961Z,1.50
2018-12-31T16:02:15.254Z,1.57
2018-12-31T16:04:45.139Z,1.50
2018-12-31T16:07:15.173Z,0.93
2018-12-31T16:09:45.081Z,1.17
2018-12-31T16:12:15.048Z,1.33
2018-12-31T16:14:44.923Z,1.03
2018-12-31T16:17:15.705Z,1.40
2018-12-31T16:19:45.582Z,1.20
2018-12-31T16:22:15.424Z,1.30
2018-12-31T16:24:45.328Z,1.07
2018-12-31T16:27:15.274Z,1.33
2018-12-31T16:29:45.148Z,1.20
2018-12-31T16:32:15.059Z,1.30
2018-12-31T16:34:44.964Z,1.20
2018-12-31T16:37:14.831Z,1.20
2018-12-31T16:39:44.736Z,1.30
2018-12-31T16:42:14.609Z,1.00
2018-12-31T16:44:44.474Z,1.57
2018-12-31T16:47:14.351Z,1.30
2018-12-31T16:49:44.441Z,0.90
2018-12-31T16:52:14.354Z,0.93
2018-12-31T16:54:44.244Z,1.20
2018-12-31T16:57:14.110Z,1.17
2018-12-31T16:59:44.023Z,1.30
2018-12-31T17:02:14.074Z,1.50
2018-12-31T17:04:44.346Z,1.33
2018-12-31T17:07:14.231Z,1.37
2018-12-31T17:09:44.258Z,1.43
2018-12-31T17:12:15.226Z,1.40
2018-12-31T17:14:45.252Z,1.60
2018-12-31T17:17:15.451Z,1.97
2018-12-31T17:19:45.896Z,2.50
2018-12-31T17:22:15.836Z,1.73
2018-12-31T17:24:45.718Z,1.83
2018-12-31T17:27:15.564Z,2.03
2018-12-31T17:29:45.501Z,2.33
2018-12-31T17:32:15.380Z,1.50
2018-12-31T17:34:45.621Z,2.40
2018-12-31T17:37:15.588Z,2.80
2018-12-31T17:39:45.450Z,1.60
2018-12-31T17:42:15.324Z,2.07
2018-12-31T17:44:45.558Z,2.30
2018-12-31T17:47:15.451Z,2.30
2018-12-31T17:49:46.128Z,2.20
2018-12-31T17:52:16.742Z,2.07
2018-12-31T17:54:46.674Z,2.80
2018-12-31T17:57:16.507Z,2.20
2018-12-31T17:59:46.809Z,2.43
2018-12-31T18:02:16.753Z,2.17
2018-12-31T18:04:47.174Z,2.30
2018-12-31T18:07:17.099Z,2.87
2018-12-31T18:09:46.952Z,3.00
2018-12-31T18:12:16.988Z,2.63
2018-12-31T18:14:46.960Z,2.93
2018-12-31T18:17:16.936Z,2.80
2018-12-31T18:19:47.498Z,2.30
2018-12-31T18:22:17.454Z,2.60
2018-12-31T18:24:47.358Z,2.00
2018-12-31T18:27:17.738Z,2.80
2018-12-31T18:29:47.695Z,2.47
2018-12-31T18:32:17.737Z,2.60
2018-12-31T18:34:48.039Z,2.60
2018-12-31T18:37:18.192Z,2.93
2018-12-31T18:39:49.458Z,3.80
2018-12-31T18:42:19.613Z,2.93
2018-12-31T18:44:49.580Z,3.23
2018-12-31T18:47:19.407Z,2.97
2018-12-31T18:49:49.502Z,3.13
2018-12-31T18:52:19.710Z,3.90
2018-12-31T18:54:49.645Z,2.53
2018-12-31T18:57:19.537Z,2.83
2018-12-31T18:59:49.445Z,3.60
2018-12-31T19:02:19.921Z,2.73
2018-12-31T19:04:50.232Z,2.90
2018-12-31T19:07:20.171Z,3.17
2018-12-31T19:09:50.053Z,3.00
2018-12-31T19:12:19.960Z,3.20
2018-12-31T19:14:51.054Z,4.07
2018-12-31T19:17:20.954Z,3.20
2018-12-31T19:19:51.589Z,3.40
2018-12-31T19:22:21.516Z,3.20
2018-12-31T19:24:51.476Z,2.63
2018-12-31T19:27:21.370Z,2.83
2018-12-31T19:29:51.680Z,3.77
2018-12-31T19:32:21.586Z,3.07
2018-12-31T19:34:51.842Z,3.03
2018-12-31T19:37:21.784Z,4.03
2018-12-31T19:39:51.714Z,3.60
2018-12-31T19:42:21.758Z,3.27
2018-12-31T19:44:51.785Z,3.30
2018-12-31T19:47:21.633Z,3.50
2018-12-31T19:49:51.991Z,3.43
2018-12-31T19:52:21.921Z,4.07
2018-12-31T19:54:51.751Z,3.00
2018-12-31T19:57:21.658Z,3.47
2018-12-31T19:59:51.820Z,3.60
2018-12-31T20:02:21.885Z,3.13
2018-12-31T20:04:51.803Z,3.40
2018-12-31T20:07:22.661Z,2.83
2018-12-31T20:09:52.527Z,3.60
2018-12-31T20:12:22.364Z,3.00
2018-12-31T20:14:52.285Z,3.23
2018-12-31T20:17:22.252Z,3.20
2018-12-31T20:19:52.526Z,3.13
2018-12-31T20:22:22.792Z,3.83
2018-12-31T20:24:52.678Z,3.00
2018-12-31T20:27:22.638Z,2.63
2018-12-31T20:29:52.602Z,3.77
2018-12-31T20:32:22.442Z,2.70
2018-12-31T20:34:52.641Z,2.57
2018-12-31T20:37:22.695Z,3.57
2018-12-31T20:39:52.762Z,3.10
2018-12-31T20:42:22.642Z,3.90
2018-12-31T20:44:52.577Z,4.50
2018-12-31T20:47:22.482Z,3.07
2018-12-31T20:49:52.335Z,3.13
2018-12-31T20:52:23.008Z,3.40
2018-12-31T20:54:53.184Z,3.47
2018-12-31T20:57:23.012Z,3.43
2018-12-31T20:59:52.950Z,3.07
2018-12-31T21:02:22.843Z,3.10
2018-12-31T21:04:53.374Z,2.93
2018-12-31T21:07:24.003Z,3.07
2018-12-31T21:09:53.859Z,3.07
2018-12-31T21:12:23.774Z,3.23
2018-12-31T21:14:53.643Z,3.00
2018-12-31T21:17:23.565Z,3.07
2018-12-31T21:19:53.779Z,3.07
2018-12-31T21:22:24.102Z,3.00
2018-12-31T21:24:54.027Z,3.00
2018-12-31T21:27:23.917Z,2.97
2018-12-31T21:29:53.850Z,4.20
2018-12-31T21:32:23.675Z,3.20
2018-12-31T21:34:53.642Z,3.33
2018-12-31T21:37:23.601Z,3.90
2018-12-31T21:39:53.829Z,3.20
2018-12-31T21:42:23.639Z,3.20
2018-12-31T21:44:53.581Z,3.07
2018-12-31T21:47:23.504Z,2.77
2018-12-31T21:49:53.344Z,2.67
2018-12-31T21:52:23.257Z,3.27
2018-12-31T21:54:53.474Z,3.27
2018-12-31T21:57:23.371Z,3.57
2018-12-31T21:59:53.282Z,2.60
2018-12-31T22:02:23.203Z,2.47
2018-12-31T22:04:53.176Z,2.67
2018-12-31T22:07:23.089Z,2.70
2018-12-31T22:09:53.327Z,3.37
2018-12-31T22:12:23.209Z,3.07
2018-12-31T22:14:53.149Z,3.30
2018-12-31T22:17:23.427Z,2.90
2018-12-31T22:19:53.299Z,3.20
2018-12-31T22:22:23.236Z,3.40
2018-12-31T22:24:53.142Z,2.77
2018-12-31T22:27:23.148Z,2.70
2018-12-31T22:29:53.675Z,3.33
2018-12-31T22:32:23.522Z,2.97
2018-12-31T22:34:53.410Z,2.87
2018-12-31T22:37:23.309Z,2.40
2018-12-31T22:39:53.226Z,2.80
2018-12-31T22:42:23.371Z,2.70
2018-12-31T22:44:53.262Z,2.40
2018-12-31T22:47:23.171Z,2.57
2018-12-31T22:49:53.061Z,2.53
2018-12-31T22:52:23.216Z,2.37
2018-12-31T22:54:53.087Z,3.10
2018-12-31T22:57:23.457Z,2.20
2018-12-31T22:59:53.873Z,2.40
2018-12-31T23:02:23.700Z,2.10
2018-12-31T23:04:54.014Z,2.37
2018-12-31T23:07:24.181Z,3.07
2018-12-31T23:09:54.381Z,2.93
2018-12-31T23:12:24.645Z,2.57
2018-12-31T23:14:54.633Z,2.50
2018-12-31T23:17:24.506Z,2.73
2018-12-31T23:19:54.362Z,2.97
2018-12-31T23:22:24.308Z,2.60
2018-12-31T23:24:54.162Z,3.00
2018-12-31T23:27:24.472Z,2.27
2018-12-31T23:29:54.434Z,2.50
2018-12-31T23:32:24.364Z,3.20
2018-12-31T23:34:54.200Z,2.83
2018-12-31T23:37:24.354Z,2.37
2018-12-31T23:39:54.281Z,2.40
2018-12-31T23:42:24.166Z,2.70
2018-12-31T23:44:54.074Z,1.97
2018-12-31T23:47:23.965Z,2.80
2018-12-31T23:49:53.841Z,3.00
2018-12-31T23:52:24.252Z,3.20
2018-12-31T23:54:54.142Z,2.30
2018-12-31T23:57:23.999Z,2.10
2018-12-31T23:59:54.355Z,2.90
